sensor_id;sensor_type;location;lat;lon;timestamp;temperature;humidity
65462;DHT22;53236;43.666;18.444;2023-02-27T00:00:54;-0.30;99.90
65462;DHT22;53236;43.666;18.444;2023-02-27T00:03:19;-0.30;99.90
65462;DHT22;53236;43.666;18.444;2023-02-27T00:05:45;-0.40;99.90
65462;DHT22;53236;43.666;18.444;2023-02-27T00:08:11;-0.40;99.90
65462;DHT22;53236;43.666;18.444;2023-02-27T00:10:37;-0.40;99.90
65462;DHT22;53236;43.666;18.444;2023-02-27T00:13:02;-0.50;99.90
65462;DHT22;53236;43.666;18.444;2023-02-27T00:15:28;-0.50;99.90
65462;DHT22;53236;43.666;18.444;2023-02-27T00:17:57;-0.50;99.90
65462;DHT22;53236;43.666;18.444;2023-02-27T00:20:24;-0.40;99.90
65462;DHT22;53236;43.666;18.444;2023-02-27T00:22:49;-0.50;99.90
65462;DHT22;53236;43.666;18.444;2023-02-27T00:25:16;-0.50;99.90
65462;DHT22;53236;43.666;18.444;2023-02-27T00:27:42;-0.50;99.90
65462;DHT22;53236;43.666;18.444;2023-02-27T00:30:10;-0.50;99.90
65462;DHT22;53236;43.666;18.444;2023-02-27T00:32:36;-0.50;99.90
65462;DHT22;53236;43.666;18.444;2023-02-27T00:35:06;-0.50;99.90
65462;DHT22;53236;43.666;18.444;2023-02-27T00:37:33;-0.50;99.90
65462;DHT22;53236;43.666;18.444;2023-02-27T00:39:59;-0.40;99.90
65462;DHT22;53236;43.666;18.444;2023-02-27T00:42:25;-0.50;99.90
65462;DHT22;53236;43.666;18.444;2023-02-27T00:44:52;-0.50;99.90
65462;DHT22;53236;43.666;18.444;2023-02-27T00:47:18;-0.50;99.90
65462;DHT22;53236;43.666;18.444;2023-02-27T00:49:44;-0.40;99.90
65462;DHT22;53236;43.666;18.444;2023-02-27T00:52:10;-0.40;99.90
65462;DHT22;53236;43.666;18.444;2023-02-27T00:54:35;-0.50;99.90
65462;DHT22;53236;43.666;18.444;2023-02-27T00:57:01;-0.50;99.90
65462;DHT22;53236;43.666;18.444;2023-02-27T00:59:27;-0.50;99.90
65462;DHT22;53236;43.666;18.444;2023-02-27T01:01:52;-0.50;99.90
65462;DHT22;53236;43.666;18.444;2023-02-27T01:04:18;-0.50;99.90
65462;DHT22;53236;43.666;18.444;2023-02-27T01:06:44;-0.50;99.90
65462;DHT22;53236;43.666;18.444;2023-02-27T01:09:09;-0.50;99.90
65462;DHT22;53236;43.666;18.444;2023-02-27T01:11:35;-0.60;99.90
65462;DHT22;53236;43.666;18.444;2023-02-27T01:14:01;-0.60;99.90
65462;DHT22;53236;43.666;18.444;2023-02-27T01:16:27;-0.50;99.90
65462;DHT22;53236;43.666;18.444;2023-02-27T01:18:53;-0.50;99.90
65462;DHT22;53236;43.666;18.444;2023-02-27T01:21:18;-0.50;99.90
65462;DHT22;53236;43.666;18.444;2023-02-27T01:23:44;-0.60;99.90
65462;DHT22;53236;43.666;18.444;2023-02-27T01:26:10;-0.60;99.90
65462;DHT22;53236;43.666;18.444;2023-02-27T01:28:36;-0.60;99.90
65462;DHT22;53236;43.666;18.444;2023-02-27T01:31:02;-0.60;99.90
65462;DHT22;53236;43.666;18.444;2023-02-27T01:33:27;-0.70;99.90
65462;DHT22;53236;43.666;18.444;2023-02-27T01:35:53;-0.70;99.90
65462;DHT22;53236;43.666;18.444;2023-02-27T01:38:19;-0.70;99.90
65462;DHT22;53236;43.666;18.444;2023-02-27T01:40:45;-0.70;99.90
65462;DHT22;53236;43.666;18.444;2023-02-27T01:43:15;-0.70;99.90
65462;DHT22;53236;43.666;18.444;2023-02-27T01:45:43;-0.70;99.90
65462;DHT22;53236;43.666;18.444;2023-02-27T01:48:24;-0.60;99.90
65462;DHT22;53236;43.666;18.444;2023-02-27T01:50:58;-0.70;99.90
65462;DHT22;53236;43.666;18.444;2023-02-27T01:53:27;-0.70;99.90
65462;DHT22;53236;43.666;18.444;2023-02-27T01:55:58;-0.70;99.90
65462;DHT22;53236;43.666;18.444;2023-02-27T01:58:25;-0.70;99.90
65462;DHT22;53236;43.666;18.444;2023-02-27T02:00:51;-0.70;99.90
65462;DHT22;53236;43.666;18.444;2023-02-27T02:05:51;-0.70;99.90
65462;DHT22;53236;43.666;18.444;2023-02-27T02:08:19;-0.70;99.90
65462;DHT22;53236;43.666;18.444;2023-02-27T02:10:46;-0.70;99.90
65462;DHT22;53236;43.666;18.444;2023-02-27T02:13:13;-0.70;99.90
65462;DHT22;53236;43.666;18.444;2023-02-27T02:15:47;-0.70;99.90
65462;DHT22;53236;43.666;18.444;2023-02-27T02:18:27;-0.70;99.90
65462;DHT22;53236;43.666;18.444;2023-02-27T02:30:32;-0.60;99.90
65462;DHT22;53236;43.666;18.444;2023-02-27T02:38:48;-0.60;99.90
65462;DHT22;53236;43.666;18.444;2023-02-27T02:43:55;-0.60;99.90
65462;DHT22;53236;43.666;18.444;2023-02-27T02:56:52;-0.60;99.90
65462;DHT22;53236;43.666;18.444;2023-02-27T02:59:34;-0.60;99.90
65462;DHT22;53236;43.666;18.444;2023-02-27T03:02:13;-0.60;99.90
65462;DHT22;53236;43.666;18.444;2023-02-27T03:04:55;-0.60;99.90
65462;DHT22;53236;43.666;18.444;2023-02-27T03:07:28;-0.50;99.90
65462;DHT22;53236;43.666;18.444;2023-02-27T03:12:30;-0.50;99.90
65462;DHT22;53236;43.666;18.444;2023-02-27T03:15:14;-0.60;99.90
65462;DHT22;53236;43.666;18.444;2023-02-27T03:18:04;-0.50;99.90
65462;DHT22;53236;43.666;18.444;2023-02-27T03:20:38;-0.50;99.90
65462;DHT22;53236;43.666;18.444;2023-02-27T03:23:12;-0.50;99.90
65462;DHT22;53236;43.666;18.444;2023-02-27T03:25:43;-0.50;99.90
65462;DHT22;53236;43.666;18.444;2023-02-27T03:28:16;-0.50;99.90
65462;DHT22;53236;43.666;18.444;2023-02-27T03:30:56;-0.50;99.90
65462;DHT22;53236;43.666;18.444;2023-02-27T03:33:32;-0.50;99.90
65462;DHT22;53236;43.666;18.444;2023-02-27T03:36:19;-0.50;99.90
65462;DHT22;53236;43.666;18.444;2023-02-27T03:41:45;-0.50;99.90
65462;DHT22;53236;43.666;18.444;2023-02-27T03:46:49;-0.50;99.90
65462;DHT22;53236;43.666;18.444;2023-02-27T03:49:15;-0.40;99.90
65462;DHT22;53236;43.666;18.444;2023-02-27T03:51:41;-0.50;99.90
65462;DHT22;53236;43.666;18.444;2023-02-27T03:54:11;-0.50;99.90
65462;DHT22;53236;43.666;18.444;2023-02-27T03:56:49;-0.50;99.90
65462;DHT22;53236;43.666;18.444;2023-02-27T03:59:15;-0.50;99.90
65462;DHT22;53236;43.666;18.444;2023-02-27T04:01:42;-0.50;99.90
65462;DHT22;53236;43.666;18.444;2023-02-27T04:04:11;-0.60;99.90
65462;DHT22;53236;43.666;18.444;2023-02-27T04:06:39;-0.60;99.90
65462;DHT22;53236;43.666;18.444;2023-02-27T04:13:00;-0.60;99.90
65462;DHT22;53236;43.666;18.444;2023-02-27T04:16:15;-0.50;99.90
65462;DHT22;53236;43.666;18.444;2023-02-27T04:21:27;-0.50;99.90
65462;DHT22;53236;43.666;18.444;2023-02-27T04:26:48;-0.60;99.90
65462;DHT22;53236;43.666;18.444;2023-02-27T04:29:22;-0.50;99.90
65462;DHT22;53236;43.666;18.444;2023-02-27T04:34:54;-0.60;99.90
65462;DHT22;53236;43.666;18.444;2023-02-27T04:40:33;-0.60;99.90
65462;DHT22;53236;43.666;18.444;2023-02-27T04:43:01;-0.60;99.90
65462;DHT22;53236;43.666;18.444;2023-02-27T04:45:29;-0.60;99.90
65462;DHT22;53236;43.666;18.444;2023-02-27T04:48:04;-0.60;99.90
65462;DHT22;53236;43.666;18.444;2023-02-27T04:50:41;-0.60;99.90
65462;DHT22;53236;43.666;18.444;2023-02-27T04:56:15;-0.60;99.90
65462;DHT22;53236;43.666;18.444;2023-02-27T04:58:51;-0.50;99.90
65462;DHT22;53236;43.666;18.444;2023-02-27T05:01:33;-0.50;99.90
65462;DHT22;53236;43.666;18.444;2023-02-27T05:04:00;-0.50;99.90
65462;DHT22;53236;43.666;18.444;2023-02-27T05:06:31;-0.60;99.90
65462;DHT22;53236;43.666;18.444;2023-02-27T05:09:07;-0.60;99.90
65462;DHT22;53236;43.666;18.444;2023-02-27T05:11:39;-0.50;99.90
65462;DHT22;53236;43.666;18.444;2023-02-27T05:14:17;-0.50;99.90
65462;DHT22;53236;43.666;18.444;2023-02-27T05:19:23;-0.50;99.90
65462;DHT22;53236;43.666;18.444;2023-02-27T05:25:03;-0.50;99.90
65462;DHT22;53236;43.666;18.444;2023-02-27T05:30:25;-0.60;99.90
65462;DHT22;53236;43.666;18.444;2023-02-27T05:33:05;-0.50;99.90
65462;DHT22;53236;43.666;18.444;2023-02-27T05:35:37;-0.50;99.90
65462;DHT22;53236;43.666;18.444;2023-02-27T05:41:10;-0.50;99.90
65462;DHT22;53236;43.666;18.444;2023-02-27T05:43:41;-0.50;99.90
65462;DHT22;53236;43.666;18.444;2023-02-27T05:46:12;-0.40;99.90
65462;DHT22;53236;43.666;18.444;2023-02-27T05:48:46;-0.40;99.90
65462;DHT22;53236;43.666;18.444;2023-02-27T05:51:16;-0.30;99.90
65462;DHT22;53236;43.666;18.444;2023-02-27T05:53:47;-0.30;99.90
65462;DHT22;53236;43.666;18.444;2023-02-27T05:56:17;-0.20;99.90
65462;DHT22;53236;43.666;18.444;2023-02-27T05:58:53;-0.20;99.90
65462;DHT22;53236;43.666;18.444;2023-02-27T06:01:20;-0.10;99.90
65462;DHT22;53236;43.666;18.444;2023-02-27T06:03:46;-0.10;99.90
65462;DHT22;53236;43.666;18.444;2023-02-27T06:06:14;-0.10;99.90
65462;DHT22;53236;43.666;18.444;2023-02-27T06:08:41;0.00;99.90
65462;DHT22;53236;43.666;18.444;2023-02-27T06:11:07;0.00;99.90
65462;DHT22;53236;43.666;18.444;2023-02-27T06:13:33;0.10;99.90
65462;DHT22;53236;43.666;18.444;2023-02-27T06:15:59;0.10;99.90
65462;DHT22;53236;43.666;18.444;2023-02-27T06:18:24;0.20;99.90
65462;DHT22;53236;43.666;18.444;2023-02-27T06:20:50;0.20;99.90
65462;DHT22;53236;43.666;18.444;2023-02-27T06:23:16;0.30;99.90
65462;DHT22;53236;43.666;18.444;2023-02-27T06:25:42;0.50;99.90
65462;DHT22;53236;43.666;18.444;2023-02-27T06:28:08;0.50;99.90
65462;DHT22;53236;43.666;18.444;2023-02-27T06:30:34;0.60;99.90
65462;DHT22;53236;43.666;18.444;2023-02-27T06:33:00;0.60;99.90
65462;DHT22;53236;43.666;18.444;2023-02-27T06:35:26;0.70;99.90
65462;DHT22;53236;43.666;18.444;2023-02-27T06:37:54;0.80;99.90
65462;DHT22;53236;43.666;18.444;2023-02-27T06:40:19;1.00;99.90
65462;DHT22;53236;43.666;18.444;2023-02-27T06:42:45;1.20;99.90
65462;DHT22;53236;43.666;18.444;2023-02-27T06:45:12;1.30;99.90
65462;DHT22;53236;43.666;18.444;2023-02-27T06:47:39;1.30;99.90
65462;DHT22;53236;43.666;18.444;2023-02-27T06:50:05;1.40;99.90
65462;DHT22;53236;43.666;18.444;2023-02-27T06:52:32;1.50;99.90
65462;DHT22;53236;43.666;18.444;2023-02-27T06:54:57;1.60;99.90
65462;DHT22;53236;43.666;18.444;2023-02-27T06:57:23;1.70;99.90
65462;DHT22;53236;43.666;18.444;2023-02-27T06:59:49;1.80;99.90
65462;DHT22;53236;43.666;18.444;2023-02-27T07:02:16;1.90;99.90
65462;DHT22;53236;43.666;18.444;2023-02-27T07:04:42;2.20;99.90
65462;DHT22;53236;43.666;18.444;2023-02-27T07:07:08;2.50;99.90
65462;DHT22;53236;43.666;18.444;2023-02-27T07:09:35;2.60;99.90
65462;DHT22;53236;43.666;18.444;2023-02-27T07:12:02;2.70;99.90
65462;DHT22;53236;43.666;18.444;2023-02-27T07:14:28;2.70;99.90
65462;DHT22;53236;43.666;18.444;2023-02-27T07:16:54;2.70;99.90
65462;DHT22;53236;43.666;18.444;2023-02-27T07:19:21;2.70;99.90
65462;DHT22;53236;43.666;18.444;2023-02-27T07:21:47;2.60;99.90
65462;DHT22;53236;43.666;18.444;2023-02-27T07:24:12;3.00;99.90
65462;DHT22;53236;43.666;18.444;2023-02-27T07:26:38;3.30;99.90
65462;DHT22;53236;43.666;18.444;2023-02-27T07:29:04;3.50;99.90
65462;DHT22;53236;43.666;18.444;2023-02-27T07:31:30;3.70;99.90
65462;DHT22;53236;43.666;18.444;2023-02-27T07:33:56;4.10;99.90
65462;DHT22;53236;43.666;18.444;2023-02-27T07:36:22;4.20;99.90
65462;DHT22;53236;43.666;18.444;2023-02-27T07:38:47;3.90;99.90
65462;DHT22;53236;43.666;18.444;2023-02-27T07:41:13;3.80;99.90
65462;DHT22;53236;43.666;18.444;2023-02-27T07:43:39;3.50;99.90
65462;DHT22;53236;43.666;18.444;2023-02-27T07:46:05;3.40;99.90
65462;DHT22;53236;43.666;18.444;2023-02-27T07:48:31;3.20;99.90
65462;DHT22;53236;43.666;18.444;2023-02-27T07:50:58;2.70;99.90
65462;DHT22;53236;43.666;18.444;2023-02-27T07:53:24;2.50;99.90
65462;DHT22;53236;43.666;18.444;2023-02-27T07:55:50;2.70;99.90
65462;DHT22;53236;43.666;18.444;2023-02-27T07:58:16;2.80;99.90
65462;DHT22;53236;43.666;18.444;2023-02-27T08:00:43;2.80;99.90
65462;DHT22;53236;43.666;18.444;2023-02-27T08:03:09;2.80;99.90
65462;DHT22;53236;43.666;18.444;2023-02-27T08:05:35;2.50;99.90
65462;DHT22;53236;43.666;18.444;2023-02-27T08:08:01;2.50;99.90
65462;DHT22;53236;43.666;18.444;2023-02-27T08:10:27;2.60;99.90
65462;DHT22;53236;43.666;18.444;2023-02-27T08:12:53;2.60;99.90
65462;DHT22;53236;43.666;18.444;2023-02-27T08:15:19;2.60;99.90
65462;DHT22;53236;43.666;18.444;2023-02-27T08:17:45;2.60;99.90
65462;DHT22;53236;43.666;18.444;2023-02-27T08:20:11;2.60;99.90
65462;DHT22;53236;43.666;18.444;2023-02-27T08:22:39;2.60;99.90
65462;DHT22;53236;43.666;18.444;2023-02-27T08:25:06;2.60;99.90
65462;DHT22;53236;43.666;18.444;2023-02-27T08:27:33;2.70;99.90
65462;DHT22;53236;43.666;18.444;2023-02-27T08:29:59;2.90;99.90
65462;DHT22;53236;43.666;18.444;2023-02-27T08:32:25;3.10;99.90
65462;DHT22;53236;43.666;18.444;2023-02-27T08:34:51;3.10;99.90
65462;DHT22;53236;43.666;18.444;2023-02-27T08:37:17;2.90;99.90
65462;DHT22;53236;43.666;18.444;2023-02-27T08:39:43;3.00;99.90
65462;DHT22;53236;43.666;18.444;2023-02-27T08:42:09;3.20;99.90
65462;DHT22;53236;43.666;18.444;2023-02-27T08:44:34;3.40;99.90
65462;DHT22;53236;43.666;18.444;2023-02-27T08:47:00;3.70;99.90
65462;DHT22;53236;43.666;18.444;2023-02-27T08:49:26;3.80;99.90
65462;DHT22;53236;43.666;18.444;2023-02-27T08:51:52;3.80;99.90
65462;DHT22;53236;43.666;18.444;2023-02-27T08:54:17;3.50;99.90
65462;DHT22;53236;43.666;18.444;2023-02-27T08:56:43;3.20;99.90
65462;DHT22;53236;43.666;18.444;2023-02-27T08:59:09;3.30;99.90
65462;DHT22;53236;43.666;18.444;2023-02-27T09:01:35;3.40;99.90
65462;DHT22;53236;43.666;18.444;2023-02-27T09:04:04;3.40;99.90
65462;DHT22;53236;43.666;18.444;2023-02-27T09:06:32;3.40;99.90
65462;DHT22;53236;43.666;18.444;2023-02-27T09:08:58;3.50;99.90
65462;DHT22;53236;43.666;18.444;2023-02-27T09:11:24;3.60;99.90
65462;DHT22;53236;43.666;18.444;2023-02-27T09:13:51;3.30;99.90
65462;DHT22;53236;43.666;18.444;2023-02-27T09:16:18;3.30;99.90
65462;DHT22;53236;43.666;18.444;2023-02-27T09:18:45;3.20;99.90
65462;DHT22;53236;43.666;18.444;2023-02-27T09:21:11;3.10;99.90
65462;DHT22;53236;43.666;18.444;2023-02-27T09:23:36;3.00;99.90
65462;DHT22;53236;43.666;18.444;2023-02-27T09:26:02;3.00;99.90
65462;DHT22;53236;43.666;18.444;2023-02-27T09:28:30;3.00;99.90
65462;DHT22;53236;43.666;18.444;2023-02-27T09:31:00;3.00;99.90
65462;DHT22;53236;43.666;18.444;2023-02-27T09:33:25;2.90;99.90
65462;DHT22;53236;43.666;18.444;2023-02-27T09:35:53;2.90;99.90
65462;DHT22;53236;43.666;18.444;2023-02-27T09:38:19;3.10;99.90
65462;DHT22;53236;43.666;18.444;2023-02-27T09:40:45;3.40;99.90
65462;DHT22;53236;43.666;18.444;2023-02-27T09:43:19;3.40;99.90
65462;DHT22;53236;43.666;18.444;2023-02-27T09:45:50;3.60;99.90
65462;DHT22;53236;43.666;18.444;2023-02-27T09:48:33;3.60;99.90
65462;DHT22;53236;43.666;18.444;2023-02-27T09:51:01;3.40;99.90
65462;DHT22;53236;43.666;18.444;2023-02-27T09:53:33;3.40;99.90
65462;DHT22;53236;43.666;18.444;2023-02-27T10:04:49;4.20;99.90
65462;DHT22;53236;43.666;18.444;2023-02-27T10:07:29;4.40;99.90
65462;DHT22;53236;43.666;18.444;2023-02-27T10:15:31;4.30;99.90
65462;DHT22;53236;43.666;18.444;2023-02-27T10:18:09;4.30;99.90
65462;DHT22;53236;43.666;18.444;2023-02-27T10:20:41;4.20;99.90
65462;DHT22;53236;43.666;18.444;2023-02-27T10:23:18;4.10;99.90
65462;DHT22;53236;43.666;18.444;2023-02-27T10:25:47;4.00;99.90
65462;DHT22;53236;43.666;18.444;2023-02-27T10:28:20;4.00;99.90
65462;DHT22;53236;43.666;18.444;2023-02-27T10:30:56;4.20;99.90
65462;DHT22;53236;43.666;18.444;2023-02-27T10:33:33;4.40;99.90
65462;DHT22;53236;43.666;18.444;2023-02-27T10:36:00;4.60;99.90
65462;DHT22;53236;43.666;18.444;2023-02-27T10:40:54;4.70;99.90
65462;DHT22;53236;43.666;18.444;2023-02-27T10:43:22;4.50;99.90
65462;DHT22;53236;43.666;18.444;2023-02-27T10:45:48;4.50;99.90
65462;DHT22;53236;43.666;18.444;2023-02-27T10:48:14;4.40;99.90
65462;DHT22;53236;43.666;18.444;2023-02-27T10:50:43;4.10;99.90
65462;DHT22;53236;43.666;18.444;2023-02-27T10:53:21;4.30;99.90
65462;DHT22;53236;43.666;18.444;2023-02-27T10:55:59;4.40;99.90
65462;DHT22;53236;43.666;18.444;2023-02-27T10:58:31;4.50;99.90
65462;DHT22;53236;43.666;18.444;2023-02-27T11:01:00;4.50;99.90
65462;DHT22;53236;43.666;18.444;2023-02-27T11:03:38;4.60;99.90
65462;DHT22;53236;43.666;18.444;2023-02-27T11:06:21;4.80;99.90
65462;DHT22;53236;43.666;18.444;2023-02-27T11:09:11;4.90;99.90
65462;DHT22;53236;43.666;18.444;2023-02-27T11:11:37;4.70;99.90
65462;DHT22;53236;43.666;18.444;2023-02-27T11:16:56;5.00;99.90
65462;DHT22;53236;43.666;18.444;2023-02-27T11:22:14;5.30;99.90
65462;DHT22;53236;43.666;18.444;2023-02-27T11:24:40;5.50;99.90
65462;DHT22;53236;43.666;18.444;2023-02-27T11:27:22;5.90;99.90
65462;DHT22;53236;43.666;18.444;2023-02-27T11:30:01;6.30;99.90
65462;DHT22;53236;43.666;18.444;2023-02-27T11:32:46;6.60;99.90
65462;DHT22;53236;43.666;18.444;2023-02-27T11:37:49;6.40;99.90
65462;DHT22;53236;43.666;18.444;2023-02-27T11:40:17;6.10;99.90
65462;DHT22;53236;43.666;18.444;2023-02-27T11:43:14;6.00;99.90
65462;DHT22;53236;43.666;18.444;2023-02-27T11:45:41;5.70;99.90
65462;DHT22;53236;43.666;18.444;2023-02-27T11:56:45;4.90;99.90
65462;DHT22;53236;43.666;18.444;2023-02-27T12:07:32;5.00;99.90
65462;DHT22;53236;43.666;18.444;2023-02-27T12:10:28;5.20;99.90
65462;DHT22;53236;43.666;18.444;2023-02-27T12:13:02;5.20;99.90
65462;DHT22;53236;43.666;18.444;2023-02-27T12:21:13;4.90;99.90
65462;DHT22;53236;43.666;18.444;2023-02-27T12:23:52;4.80;99.90
65462;DHT22;53236;43.666;18.444;2023-02-27T12:26:38;4.60;99.90
65462;DHT22;53236;43.666;18.444;2023-02-27T12:29:28;4.40;99.90
65462;DHT22;53236;43.666;18.444;2023-02-27T12:32:15;4.30;99.90
65462;DHT22;53236;43.666;18.444;2023-02-27T12:34:48;4.00;99.90
65462;DHT22;53236;43.666;18.444;2023-02-27T12:37:23;3.60;99.90
65462;DHT22;53236;43.666;18.444;2023-02-27T12:39:52;3.40;99.90
65462;DHT22;53236;43.666;18.444;2023-02-27T12:48:32;3.50;99.90
65462;DHT22;53236;43.666;18.444;2023-02-27T12:51:41;3.60;99.90
65462;DHT22;53236;43.666;18.444;2023-02-27T12:59:41;3.60;99.90
65462;DHT22;53236;43.666;18.444;2023-02-27T13:08:12;4.00;99.90
65462;DHT22;53236;43.666;18.444;2023-02-27T13:10:53;4.40;99.90
65462;DHT22;53236;43.666;18.444;2023-02-27T13:16:05;4.90;99.90
65462;DHT22;53236;43.666;18.444;2023-02-27T13:18:54;4.90;99.90
65462;DHT22;53236;43.666;18.444;2023-02-27T13:21:31;4.80;99.90
65462;DHT22;53236;43.666;18.444;2023-02-27T13:29:22;4.60;99.90
65462;DHT22;53236;43.666;18.444;2023-02-27T13:34:33;4.40;99.90
65462;DHT22;53236;43.666;18.444;2023-02-27T13:37:03;4.30;99.90
65462;DHT22;53236;43.666;18.444;2023-02-27T13:49:56;4.70;99.90
65462;DHT22;53236;43.666;18.444;2023-02-27T13:52:29;4.80;99.90
65462;DHT22;53236;43.666;18.444;2023-02-27T13:54:55;4.90;99.90
65462;DHT22;53236;43.666;18.444;2023-02-27T13:57:32;5.00;99.90
65462;DHT22;53236;43.666;18.444;2023-02-27T14:00:06;5.00;99.90
65462;DHT22;53236;43.666;18.444;2023-02-27T14:02:53;4.90;99.90
65462;DHT22;53236;43.666;18.444;2023-02-27T14:05:36;4.60;99.90
65462;DHT22;53236;43.666;18.444;2023-02-27T14:10:54;4.00;99.90
65462;DHT22;53236;43.666;18.444;2023-02-27T14:24:34;3.10;99.90
65462;DHT22;53236;43.666;18.444;2023-02-27T14:27:04;2.90;99.90
65462;DHT22;53236;43.666;18.444;2023-02-27T14:29:32;2.80;99.90
65462;DHT22;53236;43.666;18.444;2023-02-27T14:32:04;2.60;99.90
65462;DHT22;53236;43.666;18.444;2023-02-27T14:34:34;2.50;99.90
65462;DHT22;53236;43.666;18.444;2023-02-27T14:37:05;2.40;99.90
65462;DHT22;53236;43.666;18.444;2023-02-27T14:39:34;2.40;99.90
65462;DHT22;53236;43.666;18.444;2023-02-27T14:44:50;2.40;99.90
65462;DHT22;53236;43.666;18.444;2023-02-27T14:47:34;2.40;99.90
65462;DHT22;53236;43.666;18.444;2023-02-27T14:50:07;2.40;99.90
65462;DHT22;53236;43.666;18.444;2023-02-27T14:52:44;2.40;99.90
65462;DHT22;53236;43.666;18.444;2023-02-27T14:55:13;2.60;99.90
65462;DHT22;53236;43.666;18.444;2023-02-27T14:57:51;2.50;99.90
65462;DHT22;53236;43.666;18.444;2023-02-27T15:00:44;2.50;99.90
65462;DHT22;53236;43.666;18.444;2023-02-27T15:03:18;2.50;99.90
65462;DHT22;53236;43.666;18.444;2023-02-27T15:05:45;2.50;99.90
65462;DHT22;53236;43.666;18.444;2023-02-27T15:08:20;2.60;99.90
65462;DHT22;53236;43.666;18.444;2023-02-27T15:10:48;2.60;99.90
65462;DHT22;53236;43.666;18.444;2023-02-27T15:13:23;2.60;99.90
65462;DHT22;53236;43.666;18.444;2023-02-27T15:15:49;2.70;99.90
65462;DHT22;53236;43.666;18.444;2023-02-27T15:18:21;2.70;99.90
65462;DHT22;53236;43.666;18.444;2023-02-27T15:21:00;2.60;99.90
65462;DHT22;53236;43.666;18.444;2023-02-27T15:23:27;2.70;99.90
65462;DHT22;53236;43.666;18.444;2023-02-27T15:25:57;2.70;99.90
65462;DHT22;53236;43.666;18.444;2023-02-27T15:28:29;2.70;99.90
65462;DHT22;53236;43.666;18.444;2023-02-27T15:30:58;2.60;99.90
65462;DHT22;53236;43.666;18.444;2023-02-27T15:33:29;2.60;99.90
65462;DHT22;53236;43.666;18.444;2023-02-27T15:35:57;2.70;99.90
65462;DHT22;53236;43.666;18.444;2023-02-27T15:38:28;2.70;99.90
65462;DHT22;53236;43.666;18.444;2023-02-27T15:40:55;2.70;99.90
65462;DHT22;53236;43.666;18.444;2023-02-27T15:43:22;2.60;99.90
65462;DHT22;53236;43.666;18.444;2023-02-27T15:45:49;2.50;99.90
65462;DHT22;53236;43.666;18.444;2023-02-27T15:48:16;2.50;99.90
65462;DHT22;53236;43.666;18.444;2023-02-27T15:50:46;2.50;99.90
65462;DHT22;53236;43.666;18.444;2023-02-27T15:53:15;2.40;99.90
65462;DHT22;53236;43.666;18.444;2023-02-27T15:55:57;2.30;99.90
65462;DHT22;53236;43.666;18.444;2023-02-27T15:58:35;2.30;99.90
65462;DHT22;53236;43.666;18.444;2023-02-27T16:01:05;2.20;99.90
65462;DHT22;53236;43.666;18.444;2023-02-27T16:03:36;2.20;99.90
65462;DHT22;53236;43.666;18.444;2023-02-27T16:06:14;2.10;99.90
65462;DHT22;53236;43.666;18.444;2023-02-27T16:08:45;2.00;99.90
65462;DHT22;53236;43.666;18.444;2023-02-27T16:11:22;1.90;99.90
65462;DHT22;53236;43.666;18.444;2023-02-27T16:13:48;1.80;99.90
65462;DHT22;53236;43.666;18.444;2023-02-27T16:18:49;1.70;99.90
65462;DHT22;53236;43.666;18.444;2023-02-27T16:23:45;1.60;99.90
65462;DHT22;53236;43.666;18.444;2023-02-27T16:26:29;1.50;99.90
65462;DHT22;53236;43.666;18.444;2023-02-27T16:29:01;1.50;99.90
65462;DHT22;53236;43.666;18.444;2023-02-27T16:31:32;1.50;99.90
65462;DHT22;53236;43.666;18.444;2023-02-27T16:36:39;1.50;99.90
65462;DHT22;53236;43.666;18.444;2023-02-27T16:39:15;1.40;99.90
65462;DHT22;53236;43.666;18.444;2023-02-27T16:41:40;1.40;99.90
65462;DHT22;53236;43.666;18.444;2023-02-27T16:44:06;1.40;99.90
65462;DHT22;53236;43.666;18.444;2023-02-27T16:46:32;1.40;99.90
65462;DHT22;53236;43.666;18.444;2023-02-27T16:48:57;1.40;99.90
65462;DHT22;53236;43.666;18.444;2023-02-27T16:51:25;1.40;99.90
65462;DHT22;53236;43.666;18.444;2023-02-27T16:53:53;1.40;99.90
65462;DHT22;53236;43.666;18.444;2023-02-27T16:56:20;1.40;99.90
65462;DHT22;53236;43.666;18.444;2023-02-27T16:58:48;1.40;99.90
65462;DHT22;53236;43.666;18.444;2023-02-27T17:01:13;1.40;99.90
65462;DHT22;53236;43.666;18.444;2023-02-27T17:03:40;1.50;99.90
65462;DHT22;53236;43.666;18.444;2023-02-27T17:06:07;1.40;99.90
65462;DHT22;53236;43.666;18.444;2023-02-27T17:08:34;1.30;99.90
65462;DHT22;53236;43.666;18.444;2023-02-27T17:11:00;1.30;99.90
65462;DHT22;53236;43.666;18.444;2023-02-27T17:13:26;1.20;99.90
65462;DHT22;53236;43.666;18.444;2023-02-27T17:15:52;1.20;99.90
65462;DHT22;53236;43.666;18.444;2023-02-27T17:18:18;1.10;99.90
65462;DHT22;53236;43.666;18.444;2023-02-27T17:20:44;1.10;99.90
65462;DHT22;53236;43.666;18.444;2023-02-27T17:23:11;1.10;99.90
65462;DHT22;53236;43.666;18.444;2023-02-27T17:25:39;1.00;99.90
65462;DHT22;53236;43.666;18.444;2023-02-27T17:28:05;0.90;99.90
65462;DHT22;53236;43.666;18.444;2023-02-27T17:30:30;0.90;99.90
65462;DHT22;53236;43.666;18.444;2023-02-27T17:32:56;0.90;99.90
65462;DHT22;53236;43.666;18.444;2023-02-27T17:35:22;0.90;99.90
65462;DHT22;53236;43.666;18.444;2023-02-27T17:37:47;0.90;99.90
65462;DHT22;53236;43.666;18.444;2023-02-27T17:40:13;0.90;99.90
65462;DHT22;53236;43.666;18.444;2023-02-27T17:42:39;0.90;99.90
65462;DHT22;53236;43.666;18.444;2023-02-27T17:45:06;0.90;99.90
65462;DHT22;53236;43.666;18.444;2023-02-27T17:47:32;0.80;99.90
65462;DHT22;53236;43.666;18.444;2023-02-27T17:49:58;0.80;99.90
65462;DHT22;53236;43.666;18.444;2023-02-27T17:52:24;0.90;99.90
65462;DHT22;53236;43.666;18.444;2023-02-27T17:54:49;0.90;99.90
65462;DHT22;53236;43.666;18.444;2023-02-27T17:57:15;0.90;99.90
65462;DHT22;53236;43.666;18.444;2023-02-27T17:59:41;0.90;99.90
65462;DHT22;53236;43.666;18.444;2023-02-27T18:02:11;0.80;99.90
65462;DHT22;53236;43.666;18.444;2023-02-27T18:04:37;0.80;99.90
65462;DHT22;53236;43.666;18.444;2023-02-27T18:07:03;0.70;99.90
65462;DHT22;53236;43.666;18.444;2023-02-27T18:09:29;0.80;99.90
65462;DHT22;53236;43.666;18.444;2023-02-27T18:11:55;0.80;99.90
65462;DHT22;53236;43.666;18.444;2023-02-27T18:14:22;0.70;99.90
65462;DHT22;53236;43.666;18.444;2023-02-27T18:16:48;0.70;99.90
65462;DHT22;53236;43.666;18.444;2023-02-27T18:19:13;0.70;99.90
65462;DHT22;53236;43.666;18.444;2023-02-27T18:21:39;0.70;99.90
65462;DHT22;53236;43.666;18.444;2023-02-27T18:24:07;0.70;99.90
65462;DHT22;53236;43.666;18.444;2023-02-27T18:26:33;0.70;99.90
65462;DHT22;53236;43.666;18.444;2023-02-27T18:29:05;0.60;99.90
65462;DHT22;53236;43.666;18.444;2023-02-27T18:31:34;0.70;99.90
65462;DHT22;53236;43.666;18.444;2023-02-27T18:34:00;0.70;99.90
65462;DHT22;53236;43.666;18.444;2023-02-27T18:36:27;0.70;99.90
65462;DHT22;53236;43.666;18.444;2023-02-27T18:38:53;0.80;99.90
65462;DHT22;53236;43.666;18.444;2023-02-27T18:41:19;0.80;99.90